createdAt,value
2019-05-25T00:02:06.088Z,56.00
2019-05-25T00:04:35.880Z,57.60
2019-05-25T00:07:04.980Z,57.70
2019-05-25T00:09:33.723Z,58.90
2019-05-25T00:12:02.584Z,60.50
2019-05-25T00:14:31.919Z,62.40
2019-05-25T00:17:00.898Z,63.00
2019-05-25T00:19:29.885Z,64.20
2019-05-25T00:21:58.815Z,65.10
2019-05-25T00:24:27.517Z,65.20
2019-05-25T00:26:56.320Z,67.00
2019-05-25T00:29:25.098Z,67.80
2019-05-25T00:31:54.270Z,69.00
2019-05-25T00:34:23.055Z,70.70
2019-05-25T00:36:51.882Z,71.10
2019-05-25T00:39:20.658Z,72.20
2019-05-25T00:41:49.441Z,72.80
2019-05-25T00:44:18.196Z,74.10
2019-05-25T00:46:47.065Z,74.90
2019-05-25T00:49:15.765Z,76.10
2019-05-25T00:51:44.642Z,76.00
2019-05-25T00:54:27.154Z,74.50
2019-05-25T00:56:43.924Z,74.60
2019-05-25T00:59:12.703Z,75.50
2019-05-25T01:01:41.463Z,76.00
2019-05-25T01:04:10.334Z,77.70
2019-05-25T01:06:39.115Z,78.40
2019-05-25T01:09:07.938Z,79.80
2019-05-25T01:11:36.897Z,80.80
2019-05-25T01:14:06.198Z,81.40
2019-05-25T01:16:34.921Z,81.80
2019-05-25T01:19:03.775Z,83.10
2019-05-25T01:21:33.368Z,84.80
2019-05-25T01:24:02.262Z,84.90
2019-05-25T01:26:30.956Z,84.80
2019-05-25T01:28:59.782Z,84.90
2019-05-25T01:31:28.739Z,85.00
2019-05-25T01:33:57.419Z,85.00
2019-05-25T01:36:26.189Z,84.80
2019-05-25T01:38:55.176Z,84.60
2019-05-25T01:41:23.961Z,83.90
2019-05-25T01:43:52.752Z,83.50
2019-05-25T01:46:21.607Z,83.20
2019-05-25T01:48:50.387Z,85.00
2019-05-25T01:51:19.632Z,83.40
2019-05-25T01:53:48.406Z,83.10
2019-05-25T01:56:17.485Z,83.30
2019-05-25T01:58:46.404Z,84.00
2019-05-25T02:01:15.508Z,82.80
2019-05-25T02:03:44.698Z,83.10
2019-05-25T02:06:14.151Z,82.20
2019-05-25T02:08:44.934Z,81.80
2019-05-25T02:11:14.408Z,82.20
2019-05-25T02:13:44.165Z,82.10
2019-05-25T02:16:13.420Z,82.80
2019-05-25T02:18:45.481Z,84.20
2019-05-25T02:21:12.732Z,84.90
2019-05-25T02:23:41.513Z,84.90
2019-05-25T02:26:10.316Z,85.00
2019-05-25T02:28:39.090Z,84.40
2019-05-25T02:31:15.176Z,84.10
2019-05-25T02:33:45.450Z,84.00
2019-05-25T02:36:14.357Z,85.00
2019-05-25T02:38:43.256Z,84.90
2019-05-25T02:41:12.080Z,85.60
2019-05-25T02:43:40.889Z,86.50
2019-05-25T02:46:09.661Z,86.70
2019-05-25T02:48:38.621Z,86.90
2019-05-25T02:51:07.434Z,87.10
2019-05-25T02:53:36.445Z,87.20
2019-05-25T02:56:05.590Z,87.00
2019-05-25T02:58:34.604Z,86.60
2019-05-25T03:01:03.733Z,86.50
2019-05-25T03:03:32.585Z,86.40
2019-05-25T03:06:01.762Z,85.90
2019-05-25T03:08:31.227Z,85.80
2019-05-25T03:11:00.521Z,85.20
2019-05-25T03:13:32.485Z,85.10
2019-05-25T03:16:02.280Z,84.80
2019-05-25T03:18:31.359Z,85.20
2019-05-25T03:21:00.160Z,84.40
2019-05-25T03:23:28.934Z,84.40
2019-05-25T03:25:58.320Z,84.20
2019-05-25T03:28:27.021Z,83.90
2019-05-25T03:30:56.308Z,83.60
2019-05-25T03:33:25.147Z,83.60
2019-05-25T03:35:54.024Z,83.70
2019-05-25T03:38:23.143Z,83.50
2019-05-25T03:40:51.979Z,82.90
2019-05-25T03:43:20.870Z,83.20
2019-05-25T03:45:49.585Z,82.10
2019-05-25T03:48:18.367Z,82.20
2019-05-25T03:50:47.163Z,81.90
2019-05-25T03:53:15.875Z,82.10
2019-05-25T03:55:44.623Z,81.80
2019-05-25T03:58:13.372Z,81.80
2019-05-25T04:00:42.532Z,82.10
2019-05-25T04:03:11.282Z,82.30
2019-05-25T04:05:40.097Z,81.60
2019-05-25T04:08:08.934Z,82.40
2019-05-25T04:10:38.930Z,82.50
2019-05-25T04:13:08.333Z,81.90
2019-05-25T04:15:37.155Z,82.20
2019-05-25T04:18:05.985Z,81.60
2019-05-25T04:20:35.213Z,82.40
2019-05-25T04:23:03.948Z,82.60
2019-05-25T04:25:32.738Z,81.80
2019-05-25T04:28:01.767Z,81.90
2019-05-25T04:30:31.190Z,81.60
2019-05-25T04:33:00.006Z,80.70
2019-05-25T04:35:28.814Z,80.70
2019-05-25T04:37:57.662Z,80.00
2019-05-25T04:40:26.755Z,79.80
2019-05-25T04:42:55.598Z,80.60
2019-05-25T04:45:24.449Z,80.00
2019-05-25T04:47:53.128Z,79.80
2019-05-25T04:50:22.173Z,80.50
2019-05-25T04:52:51.079Z,80.50
2019-05-25T04:55:20.006Z,80.20
2019-05-25T04:57:48.719Z,79.70
2019-05-25T05:00:17.835Z,80.40
2019-05-25T05:02:46.677Z,79.60
2019-05-25T05:05:15.518Z,79.80
2019-05-25T05:07:44.302Z,81.10
2019-05-25T05:10:13.458Z,80.50
2019-05-25T05:12:42.771Z,80.50
2019-05-25T05:15:12.627Z,80.00
2019-05-25T05:17:41.561Z,77.50
2019-05-25T05:20:10.700Z,78.30
2019-05-25T05:22:39.476Z,78.30
2019-05-25T05:25:09.634Z,78.00
2019-05-25T05:27:39.411Z,77.50
2019-05-25T05:30:15.115Z,78.60
2019-05-25T05:32:44.023Z,77.60
2019-05-25T05:35:13.256Z,76.60
2019-05-25T05:37:42.723Z,74.10
2019-05-25T05:40:12.936Z,71.60
2019-05-25T05:42:44.673Z,67.60
2019-05-25T05:45:14.688Z,66.80
2019-05-25T05:47:48.239Z,64.60
2019-05-25T05:50:19.903Z,62.30
2019-05-25T05:52:51.446Z,60.60
2019-05-25T05:55:23.019Z,60.80
2019-05-25T05:57:51.905Z,60.00
2019-05-25T06:00:20.891Z,59.90
2019-05-25T06:02:49.988Z,58.60
2019-05-25T06:05:19.032Z,59.20
2019-05-25T06:07:47.823Z,58.10
2019-05-25T06:10:17.897Z,58.10
2019-05-25T06:12:46.721Z,56.70
2019-05-25T06:15:19.469Z,57.30
2019-05-25T06:17:48.365Z,56.70
2019-05-25T06:20:17.566Z,55.30
2019-05-25T06:22:46.602Z,55.60
2019-05-25T06:25:16.012Z,55.40
2019-05-25T06:27:45.040Z,53.80
2019-05-25T06:30:15.448Z,54.60
2019-05-25T06:32:44.481Z,55.20
2019-05-25T06:35:13.832Z,53.70
2019-05-25T06:37:43.137Z,52.60
2019-05-25T06:40:12.516Z,51.10
2019-05-25T06:42:43.781Z,51.50
2019-05-25T06:45:14.254Z,51.00
2019-05-25T06:47:43.204Z,50.50
2019-05-25T06:50:12.666Z,50.80
2019-05-25T06:52:41.419Z,49.00
2019-05-25T06:55:12.204Z,48.60
2019-05-25T06:57:43.642Z,49.10
2019-05-25T07:00:12.695Z,48.70
2019-05-25T07:02:41.570Z,45.50
2019-05-25T07:05:12.024Z,46.30
2019-05-25T07:07:40.916Z,44.70
2019-05-25T07:10:10.245Z,44.10
2019-05-25T07:12:39.579Z,45.90
2019-05-25T07:15:10.607Z,46.60
2019-05-25T07:17:39.656Z,47.40
2019-05-25T07:20:09.771Z,47.90
2019-05-25T07:22:38.643Z,46.60
2019-05-25T07:25:08.244Z,46.10
2019-05-25T07:27:37.484Z,46.80
2019-05-25T07:30:08.237Z,43.10
2019-05-25T07:32:37.085Z,42.10
2019-05-25T07:35:08.038Z,39.90
2019-05-25T07:37:37.158Z,41.20
2019-05-25T07:40:07.867Z,41.00
2019-05-25T07:42:36.919Z,41.30
2019-05-25T07:45:07.882Z,40.90
2019-05-25T07:47:36.987Z,41.00
2019-05-25T07:50:08.374Z,42.40
2019-05-25T07:52:37.471Z,43.10
2019-05-25T07:55:08.491Z,44.30
2019-05-25T07:57:37.442Z,42.90
2019-05-25T08:00:07.996Z,42.00
2019-05-25T08:02:36.830Z,39.40
2019-05-25T08:05:07.245Z,37.60
2019-05-25T08:07:36.086Z,36.80
2019-05-25T08:10:05.927Z,35.20
2019-05-25T08:12:36.168Z,33.50
2019-05-25T08:15:07.798Z,34.10
2019-05-25T08:17:36.611Z,30.20
2019-05-25T08:20:07.197Z,29.90
2019-05-25T08:22:36.761Z,29.90
2019-05-25T08:25:07.403Z,29.70
2019-05-25T08:27:36.220Z,27.30
2019-05-25T08:30:09.418Z,20.40
2019-05-25T08:32:39.529Z,10.90
2019-05-25T08:35:09.913Z,7.90
2019-05-25T08:37:39.196Z,5.20
2019-05-25T08:40:08.777Z,4.00
2019-05-25T08:42:38.191Z,7.30
2019-05-25T08:45:07.695Z,10.90
2019-05-25T08:47:36.612Z,10.90
2019-05-25T08:50:07.850Z,11.80
2019-05-25T08:52:37.075Z,13.80
2019-05-25T08:55:08.496Z,12.80
2019-05-25T08:57:37.286Z,11.80
2019-05-25T09:00:08.251Z,10.40
2019-05-25T09:02:37.063Z,9.70
2019-05-25T09:05:07.910Z,10.40
2019-05-25T09:07:36.818Z,10.80
2019-05-25T09:10:07.562Z,12.10
2019-05-25T09:12:36.431Z,11.70
2019-05-25T09:15:06.752Z,10.00
2019-05-25T09:17:35.802Z,9.00
2019-05-25T09:20:07.197Z,10.50
2019-05-25T09:22:36.184Z,10.90
2019-05-25T09:25:06.947Z,7.70
2019-05-25T09:27:35.812Z,4.40
2019-05-25T09:30:07.256Z,2.60
2019-05-25T09:32:36.386Z,1.00
2019-05-25T09:35:07.365Z,1.00
2019-05-25T09:37:36.157Z,1.00
2019-05-25T09:40:06.323Z,2.00
2019-05-25T09:42:35.181Z,3.60
2019-05-25T09:45:06.179Z,3.60
2019-05-25T09:47:35.013Z,5.80
2019-05-25T09:50:05.458Z,6.30
2019-05-25T09:52:34.272Z,6.50
2019-05-25T09:55:04.435Z,5.50
2019-05-25T09:57:33.215Z,1.60
2019-05-25T10:00:02.107Z,1.00
2019-05-25T10:02:30.946Z,1.00
2019-05-25T10:04:59.775Z,1.00
2019-05-25T10:07:28.591Z,1.00
2019-05-25T10:09:57.306Z,1.00
2019-05-25T10:12:26.034Z,1.00
2019-05-25T10:14:54.801Z,1.00
2019-05-25T10:17:23.581Z,1.00
2019-05-25T10:19:52.478Z,1.00
2019-05-25T10:22:21.219Z,1.00
2019-05-25T10:24:50.111Z,1.00
2019-05-25T10:27:19.284Z,1.00
2019-05-25T10:29:48.103Z,1.00
2019-05-25T10:32:17.064Z,1.00
2019-05-25T10:34:45.818Z,1.00
2019-05-25T10:37:20.531Z,1.00
2019-05-25T10:39:49.382Z,1.00
2019-05-25T10:42:18.270Z,1.00
2019-05-25T10:44:47.658Z,1.00
2019-05-25T10:47:16.698Z,1.00
2019-05-25T10:49:45.467Z,1.00
2019-05-25T10:52:14.235Z,1.00
2019-05-25T10:54:43.280Z,1.00
2019-05-25T10:57:13.322Z,1.00
2019-05-25T10:59:52.651Z,1.00
2019-05-25T11:02:12.823Z,1.00
2019-05-25T11:04:41.630Z,1.00
2019-05-25T11:07:10.438Z,1.00
2019-05-25T11:09:39.651Z,1.00
2019-05-25T11:12:08.868Z,1.00
2019-05-25T11:14:37.896Z,1.00
2019-05-25T11:17:07.031Z,1.00
2019-05-25T11:19:36.186Z,1.00
2019-05-25T11:22:05.131Z,1.00
2019-05-25T11:24:33.984Z,1.00
2019-05-25T11:27:03.174Z,1.00
2019-05-25T11:29:32.390Z,1.00
2019-05-25T11:32:05.453Z,1.00
2019-05-25T11:34:35.499Z,1.00
2019-05-25T11:37:05.483Z,1.00
2019-05-25T11:39:36.610Z,1.00
2019-05-25T11:42:06.096Z,1.00
2019-05-25T11:44:36.894Z,1.00
2019-05-25T11:47:05.944Z,1.00
2019-05-25T11:49:34.891Z,1.00
2019-05-25T11:52:03.948Z,1.00
2019-05-25T11:54:32.742Z,1.00
2019-05-25T11:57:01.588Z,1.00
2019-05-25T11:59:30.560Z,1.00
2019-05-25T12:01:59.446Z,1.20
2019-05-25T12:04:28.295Z,1.60
2019-05-25T12:06:57.340Z,2.10
2019-05-25T12:09:26.299Z,1.80
2019-05-25T12:11:55.039Z,1.00
2019-05-25T12:14:23.915Z,1.00
2019-05-25T12:16:52.742Z,1.00
2019-05-25T12:19:21.913Z,1.40
2019-05-25T12:21:50.941Z,1.00
2019-05-25T12:24:19.721Z,1.00
2019-05-25T12:26:48.510Z,1.00
2019-05-25T12:29:17.254Z,1.00
2019-05-25T12:31:46.207Z,1.00
2019-05-25T12:34:15.135Z,1.00
2019-05-25T12:36:43.968Z,1.00
2019-05-25T12:39:12.806Z,1.00
2019-05-25T12:41:41.713Z,1.00
2019-05-25T12:44:10.577Z,1.00
2019-05-25T12:46:39.363Z,1.60
2019-05-25T12:49:08.164Z,2.70
2019-05-25T12:51:36.909Z,3.40
2019-05-25T12:54:05.687Z,4.30
2019-05-25T12:56:34.492Z,4.60
2019-05-25T12:59:03.244Z,3.00
2019-05-25T13:01:32.191Z,2.40
2019-05-25T13:04:01.030Z,1.60
2019-05-25T13:06:29.844Z,1.00
2019-05-25T13:08:58.730Z,1.00
2019-05-25T13:11:27.657Z,1.00
2019-05-25T13:13:56.552Z,1.50
2019-05-25T13:16:25.383Z,1.20
2019-05-25T13:18:54.233Z,1.00
2019-05-25T13:21:22.926Z,1.00
2019-05-25T13:23:51.749Z,1.00
2019-05-25T13:26:20.438Z,1.00
2019-05-25T13:28:49.184Z,1.00
2019-05-25T13:31:18.147Z,1.00
2019-05-25T13:33:47.059Z,1.00
2019-05-25T13:36:15.945Z,1.00
2019-05-25T13:38:44.735Z,1.00
2019-05-25T13:41:13.602Z,1.00
2019-05-25T13:43:42.512Z,1.20
2019-05-25T13:46:11.258Z,2.00
2019-05-25T13:48:40.140Z,1.00
2019-05-25T13:51:08.823Z,1.00
2019-05-25T13:53:37.631Z,1.00
2019-05-25T13:56:06.459Z,1.00
2019-05-25T13:58:35.235Z,1.00
2019-05-25T14:01:04.238Z,1.00
2019-05-25T14:03:33.007Z,1.00
2019-05-25T14:06:01.845Z,1.00
2019-05-25T14:08:30.599Z,1.00
2019-05-25T14:10:59.566Z,1.00
2019-05-25T14:13:28.920Z,1.00
2019-05-25T14:16:06.749Z,1.00
2019-05-25T14:18:29.114Z,1.00
2019-05-25T14:20:58.021Z,1.00
2019-05-25T14:23:27.173Z,1.00
2019-05-25T14:25:58.568Z,1.10
2019-05-25T14:28:27.680Z,1.00
2019-05-25T14:30:56.895Z,1.40
2019-05-25T14:33:25.741Z,1.50
2019-05-25T14:35:54.529Z,1.00
2019-05-25T14:38:23.443Z,1.20
2019-05-25T14:40:52.332Z,1.00
2019-05-25T14:43:21.221Z,1.00
2019-05-25T14:45:53.200Z,1.00
2019-05-25T14:48:20.550Z,1.40
2019-05-25T14:50:49.642Z,1.70
2019-05-25T14:53:18.622Z,1.90
2019-05-25T14:55:47.397Z,2.00
2019-05-25T14:58:16.247Z,2.30
2019-05-25T15:00:45.319Z,1.10
2019-05-25T15:03:14.231Z,1.50
2019-05-25T15:05:43.075Z,1.10
2019-05-25T15:08:11.868Z,1.00
2019-05-25T15:10:40.636Z,1.00
2019-05-25T15:13:09.434Z,1.20
2019-05-25T15:15:38.273Z,1.20
2019-05-25T15:18:07.496Z,1.20
2019-05-25T15:20:36.618Z,1.50
2019-05-25T15:23:05.356Z,1.10
2019-05-25T15:25:34.096Z,1.10
2019-05-25T15:28:02.953Z,1.90
2019-05-25T15:30:31.892Z,2.10
2019-05-25T15:33:00.760Z,3.00
2019-05-25T15:35:29.540Z,3.20
2019-05-25T15:37:58.444Z,2.60
2019-05-25T15:40:27.187Z,2.60
2019-05-25T15:42:56.198Z,2.90
2019-05-25T15:45:25.069Z,2.20
2019-05-25T15:47:53.816Z,1.90
2019-05-25T15:50:23.690Z,2.80
2019-05-25T15:52:56.231Z,2.00
2019-05-25T15:55:23.199Z,2.30
2019-05-25T15:57:52.707Z,2.50
2019-05-25T16:00:24.420Z,1.00
2019-05-25T16:02:53.298Z,1.90
2019-05-25T16:05:22.241Z,2.40
2019-05-25T16:07:53.628Z,3.20
2019-05-25T16:10:22.597Z,3.50
2019-05-25T16:12:51.303Z,4.20
2019-05-25T16:15:22.852Z,4.80
2019-05-25T16:17:52.213Z,4.80
2019-05-25T16:20:22.738Z,4.40
2019-05-25T16:22:51.525Z,6.00
2019-05-25T16:25:20.664Z,4.90
2019-05-25T16:27:49.434Z,4.70
2019-05-25T16:30:18.842Z,6.00
2019-05-25T16:33:10.949Z,5.40
2019-05-25T16:35:30.752Z,4.80
2019-05-25T16:37:59.969Z,5.90
2019-05-25T16:40:29.120Z,5.90
2019-05-25T16:42:58.367Z,5.90
2019-05-25T16:45:27.507Z,5.90
2019-05-25T16:47:56.519Z,5.80
2019-05-25T16:50:25.299Z,5.80
2019-05-25T16:52:54.293Z,5.90
2019-05-25T16:55:23.310Z,5.90
2019-05-25T16:57:52.079Z,5.80
2019-05-25T17:00:23.678Z,5.70
2019-05-25T17:02:52.462Z,5.70
2019-05-25T17:05:21.487Z,5.70
2019-05-25T17:07:50.216Z,5.70
2019-05-25T17:10:19.343Z,5.70
2019-05-25T17:12:48.551Z,5.70
2019-05-25T17:15:17.891Z,5.60
2019-05-25T17:17:46.761Z,5.70
2019-05-25T17:20:16.056Z,5.70
2019-05-25T17:22:44.858Z,5.80
2019-05-25T17:25:15.585Z,5.70
2019-05-25T17:27:44.474Z,5.90
2019-05-25T17:30:14.529Z,5.60
2019-05-25T17:32:43.636Z,5.70
2019-05-25T17:35:13.858Z,5.00
2019-05-25T17:37:42.747Z,4.50
2019-05-25T17:40:11.618Z,4.30
2019-05-25T17:42:40.436Z,4.40
2019-05-25T17:45:09.838Z,4.40
2019-05-25T17:47:41.958Z,4.60
2019-05-25T17:50:11.796Z,5.40
2019-05-25T17:52:40.625Z,5.20
2019-05-25T17:55:09.787Z,5.00
2019-05-25T17:57:38.731Z,4.60
2019-05-25T18:00:08.689Z,4.80
2019-05-25T18:02:37.724Z,5.40
2019-05-25T18:05:08.062Z,5.50
2019-05-25T18:07:36.893Z,5.50
2019-05-25T18:10:07.347Z,5.30
2019-05-25T18:12:36.083Z,5.40
2019-05-25T18:15:07.810Z,5.40
2019-05-25T18:17:36.620Z,5.50
2019-05-25T18:20:08.211Z,5.40
2019-05-25T18:22:37.074Z,5.20
2019-05-25T18:25:07.543Z,5.20
2019-05-25T18:27:36.625Z,6.00
2019-05-25T18:30:08.184Z,5.10
2019-05-25T18:32:37.000Z,5.10
2019-05-25T18:35:07.399Z,5.80
2019-05-25T18:37:36.606Z,5.90
2019-05-25T18:40:06.726Z,5.40
2019-05-25T18:42:35.484Z,5.90
2019-05-25T18:45:05.863Z,6.30
2019-05-25T18:47:34.880Z,6.40
2019-05-25T18:50:05.657Z,6.50
2019-05-25T18:52:34.542Z,6.70
2019-05-25T18:55:04.883Z,7.30
2019-05-25T18:57:33.834Z,7.30
2019-05-25T19:00:02.757Z,7.30
2019-05-25T19:02:31.661Z,7.80
2019-05-25T19:05:00.653Z,8.40
2019-05-25T19:07:29.587Z,8.80
2019-05-25T19:10:01.459Z,9.40
2019-05-25T19:12:30.278Z,9.70
2019-05-25T19:14:59.221Z,10.10
2019-05-25T19:17:28.011Z,10.60
2019-05-25T19:19:57.046Z,11.40
2019-05-25T19:22:29.005Z,11.50
2019-05-25T19:24:57.955Z,11.40
2019-05-25T19:27:26.848Z,11.80
2019-05-25T19:29:55.743Z,12.00
2019-05-25T19:32:24.897Z,12.40
2019-05-25T19:34:59.760Z,13.00
2019-05-25T19:37:24.598Z,13.20
2019-05-25T19:39:53.456Z,14.00
2019-05-25T19:42:22.384Z,14.90
2019-05-25T19:44:51.337Z,15.30
2019-05-25T19:47:20.202Z,15.40
2019-05-25T19:49:49.369Z,16.00
2019-05-25T19:52:18.297Z,16.90
2019-05-25T19:54:47.271Z,17.90
2019-05-25T19:57:16.149Z,19.20
2019-05-25T19:59:45.101Z,21.00
2019-05-25T20:02:14.418Z,21.80
2019-05-25T20:04:43.508Z,23.10
2019-05-25T20:07:15.338Z,25.10
2019-05-25T20:09:45.582Z,25.60
2019-05-25T20:12:22.883Z,26.20
2019-05-25T20:14:52.301Z,28.10
2019-05-25T20:17:21.803Z,26.40
2019-05-25T20:19:50.809Z,27.10
2019-05-25T20:22:19.796Z,27.80
2019-05-25T20:24:48.680Z,28.40
2019-05-25T20:27:26.638Z,30.70
2019-05-25T20:30:09.117Z,34.60
2019-05-25T20:32:38.209Z,35.50
2019-05-25T20:35:09.894Z,35.70
2019-05-25T20:40:55.974Z,40.00
2019-05-25T20:43:24.784Z,42.80
2019-05-25T20:45:53.653Z,42.60
2019-05-25T20:48:22.983Z,44.30
2019-05-25T20:50:53.275Z,46.50
2019-05-25T20:53:22.261Z,47.60
2019-05-25T20:55:51.096Z,48.40
2019-05-25T20:58:21.482Z,48.30
2019-05-25T21:00:50.806Z,49.40
2019-05-25T21:03:25.166Z,51.00
2019-05-25T21:05:53.986Z,53.10
2019-05-25T21:08:22.974Z,53.80
2019-05-25T21:10:51.945Z,57.50
2019-05-25T21:13:20.846Z,56.70
2019-05-25T21:15:53.018Z,57.80
2019-05-25T21:18:21.893Z,58.20
2019-05-25T21:20:50.822Z,59.40
2019-05-25T21:23:19.653Z,61.00
2019-05-25T21:25:48.488Z,64.30
2019-05-25T21:28:17.393Z,63.60
2019-05-25T21:30:46.924Z,64.70
2019-05-25T21:33:15.712Z,67.20
2019-05-25T21:35:44.507Z,69.20
2019-05-25T21:38:13.410Z,68.30
2019-05-25T21:40:42.324Z,67.20
2019-05-25T21:43:11.184Z,66.80
2019-05-25T21:45:40.042Z,68.60
2019-05-25T21:48:08.812Z,68.30
2019-05-25T21:50:37.700Z,69.00
2019-05-25T21:53:06.616Z,68.60
2019-05-25T21:55:35.867Z,68.40
2019-05-25T21:58:05.090Z,70.70
2019-05-25T22:00:36.895Z,72.30
2019-05-25T22:03:05.746Z,72.60
2019-05-25T22:05:34.722Z,74.20
2019-05-25T22:08:03.554Z,75.30
2019-05-25T22:10:32.369Z,76.00
2019-05-25T22:13:01.252Z,76.30
2019-05-25T22:15:30.142Z,76.10
2019-05-25T22:17:58.951Z,76.60
2019-05-25T22:20:27.846Z,76.60
2019-05-25T22:22:56.777Z,78.40
2019-05-25T22:25:25.649Z,78.60
2019-05-25T22:27:54.502Z,78.30
2019-05-25T22:30:23.510Z,77.70
2019-05-25T22:32:52.903Z,78.00
2019-05-25T22:35:21.724Z,79.30
2019-05-25T22:37:50.476Z,80.00
2019-05-25T22:40:19.428Z,80.40
2019-05-25T22:42:48.228Z,81.70
2019-05-25T22:45:17.084Z,82.90
2019-05-25T22:47:45.840Z,82.00
2019-05-25T22:50:15.864Z,81.00
2019-05-25T22:52:44.551Z,80.60
2019-05-25T22:55:14.068Z,80.50
2019-05-25T22:57:43.102Z,80.50
2019-05-25T23:00:12.761Z,82.50
2019-05-25T23:02:41.494Z,83.10
2019-05-25T23:05:10.826Z,82.90
2019-05-25T23:07:39.647Z,84.40
2019-05-25T23:10:10.377Z,84.70
2019-05-25T23:12:39.138Z,85.70
2019-05-25T23:15:08.500Z,87.40
2019-05-25T23:17:37.222Z,87.90
2019-05-25T23:20:07.881Z,88.30
2019-05-25T23:22:36.814Z,89.80
2019-05-25T23:25:06.367Z,89.90
2019-05-25T23:27:35.164Z,89.90
2019-05-25T23:30:05.940Z,90.30
2019-05-25T23:32:35.261Z,90.00
2019-05-25T23:35:05.096Z,87.50
2019-05-25T23:37:34.398Z,85.70
2019-05-25T23:40:05.360Z,84.70
2019-05-25T23:42:34.141Z,84.70
2019-05-25T23:45:03.028Z,85.70
2019-05-25T23:47:31.819Z,86.60
2019-05-25T23:50:00.524Z,87.30
2019-05-25T23:52:29.427Z,89.10
2019-05-25T23:54:58.268Z,89.10
2019-05-25T23:57:27.173Z,89.50
2019-05-25T23:59:56.070Z,88.80
